sensor_id;sensor_type;location;lat;lon;timestamp;temperature;humidity
25450;DHT22;13371;52.080;5.624;2022-10-30T00:01:23;18.80;95.90
25450;DHT22;13371;52.080;5.624;2022-10-30T00:03:48;18.60;95.90
25450;DHT22;13371;52.080;5.624;2022-10-30T00:06:14;18.50;96.10
25450;DHT22;13371;52.080;5.624;2022-10-30T00:08:39;18.40;96.00
25450;DHT22;13371;52.080;5.624;2022-10-30T00:11:10;18.10;96.40
25450;DHT22;13371;52.080;5.624;2022-10-30T00:13:36;18.30;96.30
25450;DHT22;13371;52.080;5.624;2022-10-30T00:16:04;18.50;95.80
25450;DHT22;13371;52.080;5.624;2022-10-30T00:18:31;18.50;95.90
25450;DHT22;13371;52.080;5.624;2022-10-30T00:21:02;18.10;96.40
25450;DHT22;13371;52.080;5.624;2022-10-30T00:23:28;17.90;97.10
25450;DHT22;13371;52.080;5.624;2022-10-30T00:25:54;17.90;96.60
25450;DHT22;13371;52.080;5.624;2022-10-30T00:28:19;17.80;97.30
25450;DHT22;13371;52.080;5.624;2022-10-30T00:30:45;17.80;96.90
25450;DHT22;13371;52.080;5.624;2022-10-30T00:33:10;18.30;96.50
25450;DHT22;13371;52.080;5.624;2022-10-30T00:35:36;18.40;96.20
25450;DHT22;13371;52.080;5.624;2022-10-30T00:38:01;18.30;95.60
25450;DHT22;13371;52.080;5.624;2022-10-30T00:40:27;18.20;96.60
25450;DHT22;13371;52.080;5.624;2022-10-30T00:42:52;18.40;95.90
25450;DHT22;13371;52.080;5.624;2022-10-30T00:45:18;18.00;96.20
25450;DHT22;13371;52.080;5.624;2022-10-30T00:47:52;17.90;96.80
25450;DHT22;13371;52.080;5.624;2022-10-30T00:50:29;18.00;96.60
25450;DHT22;13371;52.080;5.624;2022-10-30T00:53:11;17.90;96.80
25450;DHT22;13371;52.080;5.624;2022-10-30T00:55:51;17.40;97.50
25450;DHT22;13371;52.080;5.624;2022-10-30T00:58:22;17.80;97.10
25450;DHT22;13371;52.080;5.624;2022-10-30T01:00:51;18.00;96.70
25450;DHT22;13371;52.080;5.624;2022-10-30T01:03:19;18.10;96.40
25450;DHT22;13371;52.080;5.624;2022-10-30T01:05:49;17.90;96.70
25450;DHT22;13371;52.080;5.624;2022-10-30T01:08:17;17.70;97.10
25450;DHT22;13371;52.080;5.624;2022-10-30T01:10:42;17.90;96.60
25450;DHT22;13371;52.080;5.624;2022-10-30T01:13:08;18.10;96.20
25450;DHT22;13371;52.080;5.624;2022-10-30T01:15:39;18.20;96.00
25450;DHT22;13371;52.080;5.624;2022-10-30T01:21:00;18.10;95.90
25450;DHT22;13371;52.080;5.624;2022-10-30T01:31:49;18.20;95.50
25450;DHT22;13371;52.080;5.624;2022-10-30T01:34:18;18.20;95.50
25450;DHT22;13371;52.080;5.624;2022-10-30T01:37:18;18.10;95.30
25450;DHT22;13371;52.080;5.624;2022-10-30T01:39:46;18.00;95.50
25450;DHT22;13371;52.080;5.624;2022-10-30T01:42:50;17.80;96.00
25450;DHT22;13371;52.080;5.624;2022-10-30T01:48:40;17.80;96.20
25450;DHT22;13371;52.080;5.624;2022-10-30T01:53:42;17.90;95.70
25450;DHT22;13371;52.080;5.624;2022-10-30T01:59:06;17.70;96.30
25450;DHT22;13371;52.080;5.624;2022-10-30T02:01:33;17.70;96.10
25450;DHT22;13371;52.080;5.624;2022-10-30T02:04:01;17.70;96.00
25450;DHT22;13371;52.080;5.624;2022-10-30T02:06:27;17.70;96.30
25450;DHT22;13371;52.080;5.624;2022-10-30T02:08:56;17.60;96.00
25450;DHT22;13371;52.080;5.624;2022-10-30T02:11:22;17.10;97.20
25450;DHT22;13371;52.080;5.624;2022-10-30T02:13:50;17.20;97.30
25450;DHT22;13371;52.080;5.624;2022-10-30T02:16:16;17.30;97.10
25450;DHT22;13371;52.080;5.624;2022-10-30T02:18:42;17.40;96.80
25450;DHT22;13371;52.080;5.624;2022-10-30T02:21:07;17.40;96.50
25450;DHT22;13371;52.080;5.624;2022-10-30T02:23:33;17.40;96.50
25450;DHT22;13371;52.080;5.624;2022-10-30T02:25:59;17.30;96.60
25450;DHT22;13371;52.080;5.624;2022-10-30T02:28:25;17.30;96.40
25450;DHT22;13371;52.080;5.624;2022-10-30T02:30:50;17.40;96.40
25450;DHT22;13371;52.080;5.624;2022-10-30T02:33:16;17.50;96.40
25450;DHT22;13371;52.080;5.624;2022-10-30T02:35:41;17.20;96.20
25450;DHT22;13371;52.080;5.624;2022-10-30T02:38:07;17.10;96.90
25450;DHT22;13371;52.080;5.624;2022-10-30T02:40:32;17.20;96.90
25450;DHT22;13371;52.080;5.624;2022-10-30T02:42:58;17.30;96.70
25450;DHT22;13371;52.080;5.624;2022-10-30T02:45:24;17.10;96.60
25450;DHT22;13371;52.080;5.624;2022-10-30T02:47:49;16.70;97.30
25450;DHT22;13371;52.080;5.624;2022-10-30T02:50:15;16.80;97.50
25450;DHT22;13371;52.080;5.624;2022-10-30T02:52:40;17.10;97.10
25450;DHT22;13371;52.080;5.624;2022-10-30T02:55:06;17.20;96.90
25450;DHT22;13371;52.080;5.624;2022-10-30T02:57:32;17.20;96.70
25450;DHT22;13371;52.080;5.624;2022-10-30T02:59:58;17.00;97.00
25450;DHT22;13371;52.080;5.624;2022-10-30T03:02:23;17.10;96.90
25450;DHT22;13371;52.080;5.624;2022-10-30T03:04:49;17.10;96.60
25450;DHT22;13371;52.080;5.624;2022-10-30T03:07:15;17.20;96.90
25450;DHT22;13371;52.080;5.624;2022-10-30T03:09:40;17.10;97.20
25450;DHT22;13371;52.080;5.624;2022-10-30T03:12:06;17.20;96.50
25450;DHT22;13371;52.080;5.624;2022-10-30T03:14:31;17.20;96.60
25450;DHT22;13371;52.080;5.624;2022-10-30T03:16:57;17.20;96.60
25450;DHT22;13371;52.080;5.624;2022-10-30T03:19:22;17.10;96.60
25450;DHT22;13371;52.080;5.624;2022-10-30T03:21:48;17.20;96.40
25450;DHT22;13371;52.080;5.624;2022-10-30T03:24:14;17.20;96.30
25450;DHT22;13371;52.080;5.624;2022-10-30T03:26:39;17.40;96.00
25450;DHT22;13371;52.080;5.624;2022-10-30T03:29:05;17.20;96.30
25450;DHT22;13371;52.080;5.624;2022-10-30T03:31:31;17.10;96.60
25450;DHT22;13371;52.080;5.624;2022-10-30T03:33:57;17.10;96.50
25450;DHT22;13371;52.080;5.624;2022-10-30T03:36:24;17.20;96.80
25450;DHT22;13371;52.080;5.624;2022-10-30T03:38:50;17.20;96.30
25450;DHT22;13371;52.080;5.624;2022-10-30T03:41:16;17.20;96.20
25450;DHT22;13371;52.080;5.624;2022-10-30T03:43:41;17.30;96.10
25450;DHT22;13371;52.080;5.624;2022-10-30T03:46:08;17.30;96.10
25450;DHT22;13371;52.080;5.624;2022-10-30T03:48:35;17.20;95.90
25450;DHT22;13371;52.080;5.624;2022-10-30T03:51:01;17.20;96.00
25450;DHT22;13371;52.080;5.624;2022-10-30T03:53:27;17.10;96.40
25450;DHT22;13371;52.080;5.624;2022-10-30T03:56:00;17.10;96.10
25450;DHT22;13371;52.080;5.624;2022-10-30T03:58:27;17.20;96.10
25450;DHT22;13371;52.080;5.624;2022-10-30T04:00:53;17.20;96.50
25450;DHT22;13371;52.080;5.624;2022-10-30T04:03:19;17.10;95.90
25450;DHT22;13371;52.080;5.624;2022-10-30T04:05:44;17.00;96.10
25450;DHT22;13371;52.080;5.624;2022-10-30T04:08:12;16.90;96.30
25450;DHT22;13371;52.080;5.624;2022-10-30T04:10:45;16.90;96.40
25450;DHT22;13371;52.080;5.624;2022-10-30T04:13:12;17.10;96.20
25450;DHT22;13371;52.080;5.624;2022-10-30T04:15:39;17.00;96.20
25450;DHT22;13371;52.080;5.624;2022-10-30T04:18:05;16.70;96.60
25450;DHT22;13371;52.080;5.624;2022-10-30T04:20:31;16.70;96.90
25450;DHT22;13371;52.080;5.624;2022-10-30T04:22:59;16.70;96.80
25450;DHT22;13371;52.080;5.624;2022-10-30T04:25:25;16.90;96.70
25450;DHT22;13371;52.080;5.624;2022-10-30T04:27:51;16.90;96.50
25450;DHT22;13371;52.080;5.624;2022-10-30T04:30:18;16.90;96.30
25450;DHT22;13371;52.080;5.624;2022-10-30T04:32:49;16.90;96.30
25450;DHT22;13371;52.080;5.624;2022-10-30T04:35:16;16.70;96.30
25450;DHT22;13371;52.080;5.624;2022-10-30T04:37:48;16.60;97.00
25450;DHT22;13371;52.080;5.624;2022-10-30T04:40:16;16.50;97.10
25450;DHT22;13371;52.080;5.624;2022-10-30T04:42:41;16.20;97.80
25450;DHT22;13371;52.080;5.624;2022-10-30T04:45:07;16.10;98.40
25450;DHT22;13371;52.080;5.624;2022-10-30T04:47:33;16.20;98.30
25450;DHT22;13371;52.080;5.624;2022-10-30T04:49:58;16.00;98.40
25450;DHT22;13371;52.080;5.624;2022-10-30T04:52:24;16.10;98.80
25450;DHT22;13371;52.080;5.624;2022-10-30T04:54:49;15.50;99.90
25450;DHT22;13371;52.080;5.624;2022-10-30T04:57:15;15.30;99.90
25450;DHT22;13371;52.080;5.624;2022-10-30T04:59:40;15.00;99.90
25450;DHT22;13371;52.080;5.624;2022-10-30T05:02:06;15.50;99.90
25450;DHT22;13371;52.080;5.624;2022-10-30T05:04:31;15.60;99.90
25450;DHT22;13371;52.080;5.624;2022-10-30T05:06:57;16.00;99.60
25450;DHT22;13371;52.080;5.624;2022-10-30T05:09:22;15.60;99.80
25450;DHT22;13371;52.080;5.624;2022-10-30T05:11:48;15.70;99.90
25450;DHT22;13371;52.080;5.624;2022-10-30T05:14:14;15.60;99.90
25450;DHT22;13371;52.080;5.624;2022-10-30T05:16:39;15.80;99.90
25450;DHT22;13371;52.080;5.624;2022-10-30T05:19:05;16.10;99.40
25450;DHT22;13371;52.080;5.624;2022-10-30T05:21:30;16.30;98.90
25450;DHT22;13371;52.080;5.624;2022-10-30T05:23:56;16.50;98.40
25450;DHT22;13371;52.080;5.624;2022-10-30T05:26:21;16.50;98.00
25450;DHT22;13371;52.080;5.624;2022-10-30T05:28:47;16.70;97.90
25450;DHT22;13371;52.080;5.624;2022-10-30T05:31:12;16.70;97.70
25450;DHT22;13371;52.080;5.624;2022-10-30T05:33:38;16.80;97.30
25450;DHT22;13371;52.080;5.624;2022-10-30T05:36:04;16.80;97.20
25450;DHT22;13371;52.080;5.624;2022-10-30T05:38:29;16.70;97.10
25450;DHT22;13371;52.080;5.624;2022-10-30T05:40:55;16.80;97.10
25450;DHT22;13371;52.080;5.624;2022-10-30T05:43:20;16.40;97.10
25450;DHT22;13371;52.080;5.624;2022-10-30T05:45:48;16.40;97.50
25450;DHT22;13371;52.080;5.624;2022-10-30T05:48:14;16.00;98.30
25450;DHT22;13371;52.080;5.624;2022-10-30T05:50:39;16.30;97.70
25450;DHT22;13371;52.080;5.624;2022-10-30T05:53:05;16.20;97.50
25450;DHT22;13371;52.080;5.624;2022-10-30T05:55:31;16.20;97.80
25450;DHT22;13371;52.080;5.624;2022-10-30T05:57:58;16.40;97.60
25450;DHT22;13371;52.080;5.624;2022-10-30T06:00:25;16.30;97.20
25450;DHT22;13371;52.080;5.624;2022-10-30T06:02:51;16.20;97.60
25450;DHT22;13371;52.080;5.624;2022-10-30T06:05:17;15.60;98.70
25450;DHT22;13371;52.080;5.624;2022-10-30T06:07:42;15.40;99.70
25450;DHT22;13371;52.080;5.624;2022-10-30T06:10:08;15.40;99.90
25450;DHT22;13371;52.080;5.624;2022-10-30T06:12:34;15.00;99.90
25450;DHT22;13371;52.080;5.624;2022-10-30T06:14:59;15.20;99.90
25450;DHT22;13371;52.080;5.624;2022-10-30T06:17:25;15.30;99.90
25450;DHT22;13371;52.080;5.624;2022-10-30T06:19:50;15.30;99.90
25450;DHT22;13371;52.080;5.624;2022-10-30T06:22:16;15.00;99.90
25450;DHT22;13371;52.080;5.624;2022-10-30T06:24:42;14.90;99.90
25450;DHT22;13371;52.080;5.624;2022-10-30T06:27:07;14.50;99.90
25450;DHT22;13371;52.080;5.624;2022-10-30T06:29:33;14.30;99.90
25450;DHT22;13371;52.080;5.624;2022-10-30T06:31:58;14.40;99.90
25450;DHT22;13371;52.080;5.624;2022-10-30T06:34:24;14.50;99.90
25450;DHT22;13371;52.080;5.624;2022-10-30T06:36:50;14.60;99.90
25450;DHT22;13371;52.080;5.624;2022-10-30T06:39:15;14.50;99.90
25450;DHT22;13371;52.080;5.624;2022-10-30T06:41:41;14.40;99.90
25450;DHT22;13371;52.080;5.624;2022-10-30T06:44:06;14.40;99.90
25450;DHT22;13371;52.080;5.624;2022-10-30T06:46:32;14.70;99.90
25450;DHT22;13371;52.080;5.624;2022-10-30T06:48:58;14.80;99.90
25450;DHT22;13371;52.080;5.624;2022-10-30T06:51:23;14.90;99.90
25450;DHT22;13371;52.080;5.624;2022-10-30T06:53:49;15.10;99.90
25450;DHT22;13371;52.080;5.624;2022-10-30T06:56:15;15.70;99.90
25450;DHT22;13371;52.080;5.624;2022-10-30T06:58:40;16.00;99.90
25450;DHT22;13371;52.080;5.624;2022-10-30T07:01:06;16.20;99.90
25450;DHT22;13371;52.080;5.624;2022-10-30T07:03:33;16.30;99.70
25450;DHT22;13371;52.080;5.624;2022-10-30T07:05:58;16.50;99.40
25450;DHT22;13371;52.080;5.624;2022-10-30T07:08:24;16.50;99.00
25450;DHT22;13371;52.080;5.624;2022-10-30T07:10:49;16.30;99.30
25450;DHT22;13371;52.080;5.624;2022-10-30T07:13:15;16.40;99.00
25450;DHT22;13371;52.080;5.624;2022-10-30T07:15:41;16.70;98.70
25450;DHT22;13371;52.080;5.624;2022-10-30T07:18:08;16.90;98.60
25450;DHT22;13371;52.080;5.624;2022-10-30T07:20:35;17.10;99.10
25450;DHT22;13371;52.080;5.624;2022-10-30T07:23:01;17.60;99.20
25450;DHT22;13371;52.080;5.624;2022-10-30T07:25:27;18.10;98.70
25450;DHT22;13371;52.080;5.624;2022-10-30T07:27:54;18.60;97.90
25450;DHT22;13371;52.080;5.624;2022-10-30T07:30:22;19.10;97.30
25450;DHT22;13371;52.080;5.624;2022-10-30T07:33:03;19.70;96.40
25450;DHT22;13371;52.080;5.624;2022-10-30T07:35:30;20.40;95.70
25450;DHT22;13371;52.080;5.624;2022-10-30T07:38:00;21.10;94.50
25450;DHT22;13371;52.080;5.624;2022-10-30T07:40:27;21.90;93.40
25450;DHT22;13371;52.080;5.624;2022-10-30T07:42:57;22.60;91.00
25450;DHT22;13371;52.080;5.624;2022-10-30T07:45:23;22.80;88.00
25450;DHT22;13371;52.080;5.624;2022-10-30T07:47:48;22.90;85.90
25450;DHT22;13371;52.080;5.624;2022-10-30T07:50:14;21.90;86.40
25450;DHT22;13371;52.080;5.624;2022-10-30T07:52:49;21.30;89.80
25450;DHT22;13371;52.080;5.624;2022-10-30T07:55:15;21.10;90.60
25450;DHT22;13371;52.080;5.624;2022-10-30T07:57:41;21.20;89.70
25450;DHT22;13371;52.080;5.624;2022-10-30T08:00:09;21.70;89.80
25450;DHT22;13371;52.080;5.624;2022-10-30T08:02:36;22.00;89.30
25450;DHT22;13371;52.080;5.624;2022-10-30T08:05:04;21.30;89.50
25450;DHT22;13371;52.080;5.624;2022-10-30T08:07:36;20.60;90.90
25450;DHT22;13371;52.080;5.624;2022-10-30T08:10:03;20.80;91.00
25450;DHT22;13371;52.080;5.624;2022-10-30T08:12:30;21.60;90.50
25450;DHT22;13371;52.080;5.624;2022-10-30T08:14:56;22.30;88.50
25450;DHT22;13371;52.080;5.624;2022-10-30T08:17:22;21.30;90.50
25450;DHT22;13371;52.080;5.624;2022-10-30T08:19:49;22.30;89.40
25450;DHT22;13371;52.080;5.624;2022-10-30T08:22:15;23.00;87.40
25450;DHT22;13371;52.080;5.624;2022-10-30T08:24:41;23.00;86.90
25450;DHT22;13371;52.080;5.624;2022-10-30T08:27:07;23.60;86.30
25450;DHT22;13371;52.080;5.624;2022-10-30T08:29:32;23.70;83.70
25450;DHT22;13371;52.080;5.624;2022-10-30T08:31:59;22.10;88.20
25450;DHT22;13371;52.080;5.624;2022-10-30T08:34:25;22.60;86.80
25450;DHT22;13371;52.080;5.624;2022-10-30T08:36:56;22.70;86.70
25450;DHT22;13371;52.080;5.624;2022-10-30T08:39:21;22.50;88.10
25450;DHT22;13371;52.080;5.624;2022-10-30T08:41:47;22.20;88.50
25450;DHT22;13371;52.080;5.624;2022-10-30T08:44:13;22.40;89.40
25450;DHT22;13371;52.080;5.624;2022-10-30T08:46:38;22.30;89.80
25450;DHT22;13371;52.080;5.624;2022-10-30T08:49:04;23.20;88.00
25450;DHT22;13371;52.080;5.624;2022-10-30T08:51:33;22.80;87.70
25450;DHT22;13371;52.080;5.624;2022-10-30T08:53:59;23.30;86.30
25450;DHT22;13371;52.080;5.624;2022-10-30T08:56:25;22.90;86.40
25450;DHT22;13371;52.080;5.624;2022-10-30T08:58:51;21.40;90.40
25450;DHT22;13371;52.080;5.624;2022-10-30T09:01:17;21.50;91.20
25450;DHT22;13371;52.080;5.624;2022-10-30T09:03:44;22.50;89.50
25450;DHT22;13371;52.080;5.624;2022-10-30T09:06:09;22.10;89.50
25450;DHT22;13371;52.080;5.624;2022-10-30T09:08:35;22.60;89.60
25450;DHT22;13371;52.080;5.624;2022-10-30T09:11:01;22.30;89.40
25450;DHT22;13371;52.080;5.624;2022-10-30T09:13:26;21.60;90.80
25450;DHT22;13371;52.080;5.624;2022-10-30T09:15:52;21.10;91.70
25450;DHT22;13371;52.080;5.624;2022-10-30T09:18:18;21.00;92.10
25450;DHT22;13371;52.080;5.624;2022-10-30T09:20:43;20.70;92.70
25450;DHT22;13371;52.080;5.624;2022-10-30T09:23:09;20.90;92.80
25450;DHT22;13371;52.080;5.624;2022-10-30T09:25:34;21.70;91.60
25450;DHT22;13371;52.080;5.624;2022-10-30T09:28:00;21.80;91.10
25450;DHT22;13371;52.080;5.624;2022-10-30T09:30:26;22.30;91.20
25450;DHT22;13371;52.080;5.624;2022-10-30T09:32:59;22.70;90.20
25450;DHT22;13371;52.080;5.624;2022-10-30T09:35:27;22.40;89.40
25450;DHT22;13371;52.080;5.624;2022-10-30T09:37:54;22.40;90.00
25450;DHT22;13371;52.080;5.624;2022-10-30T09:48:41;22.10;90.80
25450;DHT22;13371;52.080;5.624;2022-10-30T09:57:48;20.20;93.60
25450;DHT22;13371;52.080;5.624;2022-10-30T10:00:21;21.40;93.10
25450;DHT22;13371;52.080;5.624;2022-10-30T10:05:44;23.80;90.00
25450;DHT22;13371;52.080;5.624;2022-10-30T10:08:16;24.10;86.90
25450;DHT22;13371;52.080;5.624;2022-10-30T10:11:19;24.00;87.40
25450;DHT22;13371;52.080;5.624;2022-10-30T10:20:28;23.70;87.80
25450;DHT22;13371;52.080;5.624;2022-10-30T10:23:01;23.90;86.80
25450;DHT22;13371;52.080;5.624;2022-10-30T10:25:42;23.70;86.70
25450;DHT22;13371;52.080;5.624;2022-10-30T10:45:18;23.90;87.00
25450;DHT22;13371;52.080;5.624;2022-10-30T10:47:58;23.20;88.50
25450;DHT22;13371;52.080;5.624;2022-10-30T10:50:43;23.80;90.60
25450;DHT22;13371;52.080;5.624;2022-10-30T10:53:23;24.10;87.20
25450;DHT22;13371;52.080;5.624;2022-10-30T10:55:55;24.10;85.90
25450;DHT22;13371;52.080;5.624;2022-10-30T10:58:38;23.60;87.60
25450;DHT22;13371;52.080;5.624;2022-10-30T11:01:25;23.70;88.00
25450;DHT22;13371;52.080;5.624;2022-10-30T11:07:19;23.80;88.10
25450;DHT22;13371;52.080;5.624;2022-10-30T11:10:00;23.70;87.40
25450;DHT22;13371;52.080;5.624;2022-10-30T11:12:35;23.10;90.00
25450;DHT22;13371;52.080;5.624;2022-10-30T11:15:20;22.30;90.60
25450;DHT22;13371;52.080;5.624;2022-10-30T11:18:08;22.80;91.30
25450;DHT22;13371;52.080;5.624;2022-10-30T11:20:56;23.90;88.40
25450;DHT22;13371;52.080;5.624;2022-10-30T11:23:37;23.90;85.80
25450;DHT22;13371;52.080;5.624;2022-10-30T11:28:49;24.20;88.80
25450;DHT22;13371;52.080;5.624;2022-10-30T11:33:51;24.20;86.20
25450;DHT22;13371;52.080;5.624;2022-10-30T11:42:31;24.80;82.50
25450;DHT22;13371;52.080;5.624;2022-10-30T11:44:57;23.70;87.30
25450;DHT22;13371;52.080;5.624;2022-10-30T11:47:52;23.50;87.10
25450;DHT22;13371;52.080;5.624;2022-10-30T11:50:40;23.90;86.40
25450;DHT22;13371;52.080;5.624;2022-10-30T11:56:31;23.70;89.90
25450;DHT22;13371;52.080;5.624;2022-10-30T11:59:05;24.50;85.40
25450;DHT22;13371;52.080;5.624;2022-10-30T12:01:47;24.80;84.70
25450;DHT22;13371;52.080;5.624;2022-10-30T12:04:28;24.50;83.90
25450;DHT22;13371;52.080;5.624;2022-10-30T12:07:23;24.00;86.70
25450;DHT22;13371;52.080;5.624;2022-10-30T12:09:50;24.00;85.40
25450;DHT22;13371;52.080;5.624;2022-10-30T12:12:37;23.60;86.40
25450;DHT22;13371;52.080;5.624;2022-10-30T12:17:39;23.80;89.10
25450;DHT22;13371;52.080;5.624;2022-10-30T12:20:06;23.80;86.90
25450;DHT22;13371;52.080;5.624;2022-10-30T12:22:33;23.30;88.30
25450;DHT22;13371;52.080;5.624;2022-10-30T12:25:02;23.40;88.10
25450;DHT22;13371;52.080;5.624;2022-10-30T12:27:33;22.80;90.00
25450;DHT22;13371;52.080;5.624;2022-10-30T12:32:32;23.30;89.20
25450;DHT22;13371;52.080;5.624;2022-10-30T12:35:03;22.60;90.40
25450;DHT22;13371;52.080;5.624;2022-10-30T12:37:41;22.40;90.40
25450;DHT22;13371;52.080;5.624;2022-10-30T12:40:12;21.90;91.60
25450;DHT22;13371;52.080;5.624;2022-10-30T12:42:54;22.70;91.20
25450;DHT22;13371;52.080;5.624;2022-10-30T12:45:43;23.10;90.00
25450;DHT22;13371;52.080;5.624;2022-10-30T12:53:31;23.50;90.10
25450;DHT22;13371;52.080;5.624;2022-10-30T12:56:04;23.10;90.10
25450;DHT22;13371;52.080;5.624;2022-10-30T13:06:41;22.90;90.80
25450;DHT22;13371;52.080;5.624;2022-10-30T13:09:25;23.20;90.50
25450;DHT22;13371;52.080;5.624;2022-10-30T13:17:11;23.00;90.90
25450;DHT22;13371;52.080;5.624;2022-10-30T13:19:43;23.10;90.70
25450;DHT22;13371;52.080;5.624;2022-10-30T13:28:06;22.70;90.90
25450;DHT22;13371;52.080;5.624;2022-10-30T13:30:39;23.00;90.60
25450;DHT22;13371;52.080;5.624;2022-10-30T13:33:18;22.60;90.90
25450;DHT22;13371;52.080;5.624;2022-10-30T13:48:15;22.10;91.50
25450;DHT22;13371;52.080;5.624;2022-10-30T13:53:17;22.40;91.20
25450;DHT22;13371;52.080;5.624;2022-10-30T13:55:45;22.60;90.90
25450;DHT22;13371;52.080;5.624;2022-10-30T13:58:21;22.60;91.00
25450;DHT22;13371;52.080;5.624;2022-10-30T14:03:44;22.70;90.70
25450;DHT22;13371;52.080;5.624;2022-10-30T14:06:30;22.70;90.70
25450;DHT22;13371;52.080;5.624;2022-10-30T14:11:52;23.00;90.50
25450;DHT22;13371;52.080;5.624;2022-10-30T14:14:28;23.10;90.30
25450;DHT22;13371;52.080;5.624;2022-10-30T14:17:16;22.90;90.70
25450;DHT22;13371;52.080;5.624;2022-10-30T14:22:29;22.70;90.90
25450;DHT22;13371;52.080;5.624;2022-10-30T14:24:55;22.60;91.10
25450;DHT22;13371;52.080;5.624;2022-10-30T14:27:30;22.80;91.10
25450;DHT22;13371;52.080;5.624;2022-10-30T14:29:57;23.00;90.60
25450;DHT22;13371;52.080;5.624;2022-10-30T14:39:51;23.10;90.30
25450;DHT22;13371;52.080;5.624;2022-10-30T14:45:22;23.30;90.40
25450;DHT22;13371;52.080;5.624;2022-10-30T14:50:55;23.20;90.30
25450;DHT22;13371;52.080;5.624;2022-10-30T14:53:48;22.90;90.60
25450;DHT22;13371;52.080;5.624;2022-10-30T14:58:42;22.20;91.90
25450;DHT22;13371;52.080;5.624;2022-10-30T15:01:30;22.30;91.90
25450;DHT22;13371;52.080;5.624;2022-10-30T15:04:22;22.30;91.80
25450;DHT22;13371;52.080;5.624;2022-10-30T15:07:30;21.60;92.80
25450;DHT22;13371;52.080;5.624;2022-10-30T15:10:05;21.90;92.80
25450;DHT22;13371;52.080;5.624;2022-10-30T15:12:51;22.40;92.10
25450;DHT22;13371;52.080;5.624;2022-10-30T15:15:23;22.60;91.80
25450;DHT22;13371;52.080;5.624;2022-10-30T15:17:55;22.70;91.40
25450;DHT22;13371;52.080;5.624;2022-10-30T15:20:24;22.70;91.30
25450;DHT22;13371;52.080;5.624;2022-10-30T15:23:03;22.90;91.10
25450;DHT22;13371;52.080;5.624;2022-10-30T15:25:51;22.90;91.00
25450;DHT22;13371;52.080;5.624;2022-10-30T15:28:21;22.90;91.10
25450;DHT22;13371;52.080;5.624;2022-10-30T15:33:42;23.10;90.80
25450;DHT22;13371;52.080;5.624;2022-10-30T15:39:09;23.10;90.90
25450;DHT22;13371;52.080;5.624;2022-10-30T15:44:05;23.00;91.00
25450;DHT22;13371;52.080;5.624;2022-10-30T15:46:31;22.90;91.00
25450;DHT22;13371;52.080;5.624;2022-10-30T15:48:57;22.90;91.00
25450;DHT22;13371;52.080;5.624;2022-10-30T15:51:23;22.90;91.10
25450;DHT22;13371;52.080;5.624;2022-10-30T15:53:52;22.70;91.20
25450;DHT22;13371;52.080;5.624;2022-10-30T15:58:51;22.60;91.40
25450;DHT22;13371;52.080;5.624;2022-10-30T16:01:26;22.60;91.40
25450;DHT22;13371;52.080;5.624;2022-10-30T16:03:54;22.70;91.30
25450;DHT22;13371;52.080;5.624;2022-10-30T16:06:23;22.70;91.30
25450;DHT22;13371;52.080;5.624;2022-10-30T16:08:50;22.60;91.40
25450;DHT22;13371;52.080;5.624;2022-10-30T16:11:16;22.70;91.20
25450;DHT22;13371;52.080;5.624;2022-10-30T16:13:42;22.30;91.60
25450;DHT22;13371;52.080;5.624;2022-10-30T16:16:28;22.40;91.70
25450;DHT22;13371;52.080;5.624;2022-10-30T16:18:59;22.40;91.70
25450;DHT22;13371;52.080;5.624;2022-10-30T16:21:26;22.30;91.70
25450;DHT22;13371;52.080;5.624;2022-10-30T16:23:59;22.20;91.90
25450;DHT22;13371;52.080;5.624;2022-10-30T16:26:36;22.20;92.00
25450;DHT22;13371;52.080;5.624;2022-10-30T16:31:46;21.80;92.60
25450;DHT22;13371;52.080;5.624;2022-10-30T16:34:33;21.60;92.80
25450;DHT22;13371;52.080;5.624;2022-10-30T16:37:02;21.50;93.10
25450;DHT22;13371;52.080;5.624;2022-10-30T16:39:30;21.30;93.70
25450;DHT22;13371;52.080;5.624;2022-10-30T16:41:57;20.90;94.10
25450;DHT22;13371;52.080;5.624;2022-10-30T16:44:34;20.80;94.60
25450;DHT22;13371;52.080;5.624;2022-10-30T16:47:05;20.80;94.60
25450;DHT22;13371;52.080;5.624;2022-10-30T16:49:33;20.60;94.70
25450;DHT22;13371;52.080;5.624;2022-10-30T16:52:02;20.40;95.40
25450;DHT22;13371;52.080;5.624;2022-10-30T16:54:37;20.20;95.70
25450;DHT22;13371;52.080;5.624;2022-10-30T16:57:13;20.50;95.50
25450;DHT22;13371;52.080;5.624;2022-10-30T16:59:46;20.40;95.40
25450;DHT22;13371;52.080;5.624;2022-10-30T17:02:26;20.50;95.10
25450;DHT22;13371;52.080;5.624;2022-10-30T17:04:55;20.40;95.00
25450;DHT22;13371;52.080;5.624;2022-10-30T17:07:25;20.20;95.30
25450;DHT22;13371;52.080;5.624;2022-10-30T17:09:52;20.30;95.10
25450;DHT22;13371;52.080;5.624;2022-10-30T17:17:24;20.50;94.30
25450;DHT22;13371;52.080;5.624;2022-10-30T17:22:43;20.40;94.20
25450;DHT22;13371;52.080;5.624;2022-10-30T17:25:36;20.40;94.10
25450;DHT22;13371;52.080;5.624;2022-10-30T17:28:02;20.60;93.90
25450;DHT22;13371;52.080;5.624;2022-10-30T17:30:38;20.50;93.80
25450;DHT22;13371;52.080;5.624;2022-10-30T17:33:33;20.40;94.10
25450;DHT22;13371;52.080;5.624;2022-10-30T17:36:05;20.30;94.20
25450;DHT22;13371;52.080;5.624;2022-10-30T17:38:31;20.50;93.90
25450;DHT22;13371;52.080;5.624;2022-10-30T17:40:57;20.70;93.70
25450;DHT22;13371;52.080;5.624;2022-10-30T17:43:28;20.70;93.70
25450;DHT22;13371;52.080;5.624;2022-10-30T17:45:55;20.60;93.50
25450;DHT22;13371;52.080;5.624;2022-10-30T17:48:27;20.70;93.70
25450;DHT22;13371;52.080;5.624;2022-10-30T17:50:54;20.60;93.80
25450;DHT22;13371;52.080;5.624;2022-10-30T17:53:22;20.60;93.50
25450;DHT22;13371;52.080;5.624;2022-10-30T17:55:56;20.80;93.60
25450;DHT22;13371;52.080;5.624;2022-10-30T17:58:25;20.90;93.40
25450;DHT22;13371;52.080;5.624;2022-10-30T18:00:51;20.90;93.30
25450;DHT22;13371;52.080;5.624;2022-10-30T18:03:17;21.00;93.20
25450;DHT22;13371;52.080;5.624;2022-10-30T18:05:42;21.00;93.00
25450;DHT22;13371;52.080;5.624;2022-10-30T18:08:09;20.90;93.10
25450;DHT22;13371;52.080;5.624;2022-10-30T18:10:34;20.90;93.00
25450;DHT22;13371;52.080;5.624;2022-10-30T18:13:00;20.90;93.00
25450;DHT22;13371;52.080;5.624;2022-10-30T18:15:32;20.90;93.00
25450;DHT22;13371;52.080;5.624;2022-10-30T18:17:58;20.90;93.00
25450;DHT22;13371;52.080;5.624;2022-10-30T18:20:25;20.80;93.00
25450;DHT22;13371;52.080;5.624;2022-10-30T18:22:50;20.50;93.60
25450;DHT22;13371;52.080;5.624;2022-10-30T18:25:21;20.60;93.50
25450;DHT22;13371;52.080;5.624;2022-10-30T18:27:47;20.70;93.30
25450;DHT22;13371;52.080;5.624;2022-10-30T18:30:13;20.70;93.20
25450;DHT22;13371;52.080;5.624;2022-10-30T18:32:40;20.60;93.30
25450;DHT22;13371;52.080;5.624;2022-10-30T18:37:45;20.60;93.20